New Brunswick, NJ

3:39 AM EST on December 07, 2016 (GMT -0500)
River Road | | Change Station

Elev 46 ft 40.50 °N, 74.44 °W | Updated 8 minutes ago

Light Drizzle
Light Drizzle
39.7 °F
Feels Like 40 °F
N
0.0
Wind Variable Wind from NW
Gusts 1.6 mph

Today
High -- | Low -- °F
--% Chance of Precip.
Yesterday
High -- | Low -- °F
Precip. -- in
Pressure 29.89 in
Visibility 5.0 miles
Clouds Mostly Cloudy 700 ft
Overcast 1100 ft
Windchill 40 °F
Dew Point 40 °F
Humidity 99%
Rainfall 0.11 in
Snow Depth Not available.
7:08 AM 4:30 PM
Waxing Crescent, 50% visible
METAR KLDJ 070835Z AUTO 03007KT 5SM -DZ BKN007 OVC011 04/03 A2989 RMK AO2 T00400029
Pressure 29.89 in
Visibility 5.0 miles
Clouds Mostly Cloudy 700 ft
Overcast 1100 ft
Windchill 40 °F
Dew Point 40 °F
Humidity 99%
Rainfall 0.11 in
Snow Depth Not available.
7:08 AM 4:30 PM
Waxing Crescent, 50% visible
METAR KLDJ 070835Z AUTO 03007KT 5SM -DZ BKN007 OVC011 04/03 A2989 RMK AO2 T00400029

10-Day Weather Forecast

Almanac

Astronomy

Dec. 07, 2016 Rise Set
Actual Time
Civil Twilight
Nautical Twilight
Astronomical Twilight
Moon
Length of Visible Light
Length of Day
Tomorrow will be .
, % of the Moon is Illuminated

Today's Extremes

State Highs State Lows

Community

WunderPhotos

Upload Photos

1,956,104 photos uploaded!

WunderBlog® & News

Nearby

Air Quality

  Air Quality AQ Index Pollutant
Not available.

Snow Depth

Station Depth Elevation

Earthquake Activity

City Distance Mag. Time & Date
Minimum magnitude displayed is 2.5.

Coastal Water Temperatures

Place Temperature

Stations

Nearby Weather Stations

Station Location Temp. Windchill Dew Point Humidity Wind Precip. Elev Updated Type
                   

Watches & Warnings

There are currently no watches in effect.